This is the latest recevied weather packets stored in our database for station/object KJ4RDP-13. If no packets are shown the sender has not sent any weather packets the latest 1 day(s).
| Time | Temp. | Humidity | Pressure | Rain* | Wind** | Luminosity | Snow |
|---|---|---|---|---|---|---|---|
| 1778082718 | 15° C | 99% | 1015.7 hPa | 6.6 mm | - | 91 W/m² | - |
| 1778081580 | 16.67° C | 86% | 1015.7 hPa | 0.25 mm | - | 19 W/m² | - |
| 1778081277 | 17.22° C | 85% | 1014.9 hPa | 0 mm | - | 73 W/m² | - |
| 1778080974 | 17.22° C | 82% | 1015.2 hPa | 0 mm | - | 70 W/m² | - |
| 1778080066 | 17.78° C | 79% | 1014.2 hPa | 0 mm | - | 115 W/m² | - |
| 1778079460 | 18.33° C | 78% | 1014.6 hPa | 0 mm | - | 96 W/m² | - |
| 1778078854 | 17.78° C | 78% | 1014.2 hPa | 0 mm | - | 140 W/m² | - |
| 1778078551 | 18.33° C | 76% | 1014.2 hPa | 0 mm | - | 169 W/m² | - |
| 1778077946 | 17.78° C | 76% | 1014.2 hPa | 0 mm | - | 172 W/m² | - |
| 1778077342 | 18.33° C | 76% | 1014.2 hPa | 0 mm | - | 206 W/m² | - |
| 1778076738 | 17.22° C | 79% | 1013.8 hPa | 0 mm | - | 176 W/m² | - |
| 1778076132 | 17.22° C | 79% | 1013.8 hPa | 0 mm | - | 92 W/m² | - |
| 1778075525 | 17.22° C | 80% | 1013.8 hPa | 0 mm | - | 92 W/m² | - |
| 1778074918 | 17.22° C | 80% | 1013.1 hPa | 0 mm | - | 75 W/m² | - |
| 1778072494 | 16.67° C | 80% | 1013.8 hPa | 0 mm | - | 65 W/m² | - |
| 1778071285 | 16.67° C | 79% | 1013.1 hPa | 0 mm | - | 60 W/m² | - |
| 1778070681 | 16.67° C | 80% | 1013.5 hPa | 0 mm | - | 49 W/m² | - |
| 1778070377 | 16.67° C | 80% | 1013.1 hPa | 0 mm | - | 52 W/m² | - |
| 1778070075 | 16.67° C | 78% | 1013.1 hPa | 0 mm | - | 54 W/m² | - |
| 1778069167 | 16.67° C | 78% | 1013.5 hPa | 0 mm | - | 73 W/m² | - |
| 1778068260 | 17.22° C | 77% | 1013.5 hPa | 0 mm | - | 46 W/m² | - |
| 1778067655 | 17.22° C | 76% | 1013.1 hPa | 0 mm | - | 41 W/m² | - |
| 1778066444 | 17.22° C | 77% | 1013.8 hPa | 0 mm | - | 18 W/m² | - |
| 1778063719 | 16.67° C | 77% | 1013.1 hPa | 0 mm | - | 0 W/m² | - |
| 1778063416 | 16.67° C | 76% | 1012.8 hPa | 0 mm | - | 0 W/m² | - |
* Rain latest hour (hover to see other rain measurements)
** Current wind speed in m/s (hover to see current wind gust speed)